createdAt,value
2023-01-19T00:01:48.000Z,99365.19
2023-01-19T00:04:18.625Z,99369.88
2023-01-19T00:06:49.607Z,99364.52
2023-01-19T00:09:22.152Z,99369.41
2023-01-19T00:11:52.828Z,99370.95
2023-01-19T00:14:26.400Z,99374.31
2023-01-19T00:16:56.794Z,99374.08
2023-01-19T00:19:27.635Z,99371.40
2023-01-19T00:21:58.231Z,99376.02
2023-01-19T00:24:28.696Z,99377.30
2023-01-19T00:26:59.204Z,99376.80
2023-01-19T00:29:33.450Z,99383.48
2023-01-19T00:32:04.615Z,99385.55
2023-01-19T00:34:39.518Z,99378.64
2023-01-19T00:37:10.019Z,99374.08
2023-01-19T00:39:40.732Z,99373.55
2023-01-19T00:42:30.402Z,99378.17
2023-01-19T00:45:00.872Z,99375.15
2023-01-19T00:47:32.203Z,99375.05
2023-01-19T00:50:02.655Z,99377.44
2023-01-19T00:52:33.072Z,99375.23
2023-01-19T00:55:03.924Z,99375.83
2023-01-19T00:57:34.412Z,99380.36
2023-01-19T01:00:07.120Z,99375.46
2023-01-19T01:02:37.975Z,99376.67
2023-01-19T01:05:09.586Z,99376.30
2023-01-19T01:07:41.607Z,99383.59
2023-01-19T01:10:14.423Z,99379.86
2023-01-19T01:12:56.917Z,99378.95
2023-01-19T01:15:29.945Z,99384.79
2023-01-19T01:18:00.655Z,99386.30
2023-01-19T01:20:33.662Z,99388.31
2023-01-19T01:23:04.690Z,99388.48
2023-01-19T01:25:37.782Z,99386.71
2023-01-19T01:28:09.732Z,99385.50
2023-01-19T01:30:41.153Z,99391.44
2023-01-19T01:33:13.281Z,99392.51
2023-01-19T01:35:44.107Z,99395.39
2023-01-19T01:38:14.947Z,99396.06
2023-01-19T01:40:45.896Z,99399.80
2023-01-19T01:43:18.461Z,99403.83
2023-01-19T01:45:49.519Z,99400.91
2023-01-19T01:48:23.266Z,99402.19
2023-01-19T01:51:14.833Z,99394.98
2023-01-19T01:53:48.482Z,99395.00
2023-01-19T01:56:22.679Z,99395.17
2023-01-19T01:58:53.454Z,99399.36
2023-01-19T02:01:41.966Z,99397.52
2023-01-19T02:04:12.846Z,99397.16
2023-01-19T02:07:01.141Z,99399.68
2023-01-19T02:09:52.026Z,99401.48
2023-01-19T02:12:41.228Z,99397.98
2023-01-19T02:15:20.571Z,99399.44
2023-01-19T02:17:51.126Z,99399.13
2023-01-19T02:20:27.191Z,99393.23
2023-01-19T02:23:03.223Z,99396.22
2023-01-19T02:25:35.629Z,99394.66
2023-01-19T02:28:07.643Z,99388.06
2023-01-19T02:30:40.497Z,99385.94
2023-01-19T02:33:10.935Z,99386.17
2023-01-19T02:35:42.460Z,99388.89
2023-01-19T02:38:14.853Z,99392.21
2023-01-19T02:40:46.766Z,99390.58
2023-01-19T02:43:21.049Z,99390.77
2023-01-19T02:45:51.877Z,99387.25
2023-01-19T02:48:23.306Z,99386.77
2023-01-19T02:50:59.456Z,99382.21
2023-01-19T02:54:04.273Z,99379.66
2023-01-19T02:57:00.934Z,99377.73
2023-01-19T02:59:44.952Z,99372.98
2023-01-19T03:02:28.930Z,99369.59
2023-01-19T03:05:17.295Z,99369.62
2023-01-19T03:07:58.453Z,99369.05
2023-01-19T03:10:40.377Z,99369.83
2023-01-19T03:13:15.911Z,99372.48
2023-01-19T03:15:50.885Z,99375.40
2023-01-19T03:18:24.512Z,99367.30
2023-01-19T03:21:00.442Z,99366.44
2023-01-19T03:23:35.597Z,99363.35
2023-01-19T03:26:09.535Z,99365.67
2023-01-19T03:28:43.045Z,99356.84
2023-01-19T03:31:17.653Z,99360.05
2023-01-19T03:33:51.614Z,99365.86
2023-01-19T03:36:27.922Z,99365.33
2023-01-19T03:39:02.276Z,99364.66
2023-01-19T03:41:35.232Z,99370.33
2023-01-19T03:44:06.901Z,99370.49
2023-01-19T03:46:37.788Z,99369.31
2023-01-19T03:49:09.171Z,99362.70
2023-01-19T03:51:40.647Z,99367.23
2023-01-19T03:54:12.732Z,99367.04
2023-01-19T03:56:43.648Z,99372.77
2023-01-19T03:59:17.499Z,99376.60
2023-01-19T04:01:47.988Z,99371.13
2023-01-19T04:04:19.217Z,99375.80
2023-01-19T04:06:49.953Z,99376.94
2023-01-19T04:09:20.353Z,99377.44
2023-01-19T04:11:51.424Z,99384.00
2023-01-19T04:14:22.390Z,99381.45
2023-01-19T04:16:52.816Z,99382.84
2023-01-19T04:19:23.732Z,99377.51
2023-01-19T04:21:55.384Z,99377.40
2023-01-19T04:24:25.815Z,99376.09
2023-01-19T04:26:56.535Z,99373.88
2023-01-19T04:29:26.890Z,99378.85
2023-01-19T04:31:57.720Z,99378.95
2023-01-19T04:34:28.323Z,99373.25
2023-01-19T04:36:58.957Z,99375.27
2023-01-19T04:39:29.327Z,99370.46
2023-01-19T04:42:00.769Z,99369.55
2023-01-19T04:44:31.498Z,99367.61
2023-01-19T04:47:02.883Z,99367.91
2023-01-19T04:49:34.003Z,99364.53
2023-01-19T04:52:07.804Z,99369.42
2023-01-19T04:54:38.211Z,99363.48
2023-01-19T04:57:08.616Z,99370.33
2023-01-19T04:59:38.971Z,99371.38
2023-01-19T05:02:09.669Z,99373.82
2023-01-19T05:04:40.594Z,99374.48
2023-01-19T05:07:11.271Z,99376.37
2023-01-19T05:09:41.642Z,99377.05
2023-01-19T05:12:12.552Z,99376.37
2023-01-19T05:14:43.234Z,99376.81
2023-01-19T05:17:14.291Z,99379.96
2023-01-19T05:19:44.936Z,99380.73
2023-01-19T05:22:16.075Z,99383.23
2023-01-19T05:24:47.112Z,99375.64
2023-01-19T05:27:17.561Z,99379.06
2023-01-19T05:29:48.155Z,99382.39
2023-01-19T05:32:18.947Z,99384.96
2023-01-19T05:34:49.513Z,99384.11
2023-01-19T05:37:20.536Z,99382.94
2023-01-19T05:39:50.898Z,99384.91
2023-01-19T05:42:21.523Z,99383.77
2023-01-19T05:44:52.895Z,99380.52
2023-01-19T05:47:23.287Z,99380.67
2023-01-19T05:49:53.667Z,99377.86
2023-01-19T05:52:25.036Z,99382.27
2023-01-19T05:54:56.103Z,99380.85
2023-01-19T05:57:26.525Z,99381.23
2023-01-19T05:59:56.901Z,99381.26
2023-01-19T06:02:28.775Z,99373.40
2023-01-19T06:04:59.469Z,99372.12
2023-01-19T06:07:29.796Z,99379.21
2023-01-19T06:10:00.156Z,99387.98
2023-01-19T06:12:30.509Z,99393.52
2023-01-19T06:15:01.027Z,99390.92
2023-01-19T06:17:32.547Z,99389.35
2023-01-19T06:20:03.606Z,99391.15
2023-01-19T06:22:34.103Z,99390.32
2023-01-19T06:25:04.792Z,99401.01
2023-01-19T06:27:36.378Z,99399.15
2023-01-19T06:30:08.211Z,99401.91
2023-01-19T06:32:38.585Z,99406.09
2023-01-19T06:35:10.342Z,99406.48
2023-01-19T06:37:41.131Z,99408.65
2023-01-19T06:40:14.482Z,99409.89
2023-01-19T06:42:45.717Z,99409.00
2023-01-19T06:45:16.436Z,99404.49
2023-01-19T06:47:49.440Z,99403.15
2023-01-19T06:50:20.684Z,99401.97
2023-01-19T06:52:53.623Z,99405.53
2023-01-19T06:55:24.416Z,99405.23
2023-01-19T06:58:01.864Z,99406.58
2023-01-19T07:00:32.516Z,99412.18
2023-01-19T07:03:03.818Z,99413.80
2023-01-19T07:05:37.945Z,99423.84
2023-01-19T07:08:08.489Z,99427.67
2023-01-19T07:11:26.743Z,99432.11
2023-01-19T07:13:30.249Z,99431.75
2023-01-19T07:16:00.751Z,99440.48
2023-01-19T07:18:31.817Z,99449.03
2023-01-19T07:21:02.409Z,99450.52
2023-01-19T07:23:33.026Z,99453.67
2023-01-19T07:26:03.875Z,99457.33
2023-01-19T07:28:34.263Z,99461.94
2023-01-19T07:31:05.128Z,99459.58
2023-01-19T07:33:35.889Z,99457.18
2023-01-19T07:36:07.898Z,99453.88
2023-01-19T07:38:38.629Z,99453.60
2023-01-19T07:41:10.981Z,99451.38
2023-01-19T07:43:41.311Z,99453.41
2023-01-19T07:46:11.756Z,99454.08
2023-01-19T07:48:44.335Z,99456.56
2023-01-19T07:51:18.125Z,99460.50
2023-01-19T07:53:50.541Z,99460.21
2023-01-19T07:56:22.038Z,99460.84
2023-01-19T07:58:52.880Z,99457.40
2023-01-19T08:01:25.987Z,99463.91
2023-01-19T08:03:56.356Z,99464.71
2023-01-19T08:06:33.743Z,99464.69
2023-01-19T08:09:05.694Z,99466.80
2023-01-19T08:11:36.728Z,99469.73
2023-01-19T08:14:08.173Z,99468.44
2023-01-19T08:16:38.743Z,99471.31
2023-01-19T08:19:09.294Z,99469.06
2023-01-19T08:21:39.931Z,99467.10
2023-01-19T08:24:21.445Z,99471.29
2023-01-19T08:26:52.043Z,99470.86
2023-01-19T08:29:22.407Z,99469.94
2023-01-19T08:31:55.456Z,99472.27
2023-01-19T08:34:26.203Z,99473.98
2023-01-19T08:36:56.839Z,99475.19
2023-01-19T08:39:27.403Z,99467.77
2023-01-19T08:41:59.227Z,99464.98
2023-01-19T08:44:29.614Z,99468.19
2023-01-19T08:47:00.768Z,99470.39
2023-01-19T08:49:31.359Z,99472.19
2023-01-19T08:52:03.071Z,99473.56
2023-01-19T08:54:33.600Z,99473.91
2023-01-19T08:57:04.077Z,99478.70
2023-01-19T08:59:34.990Z,99482.16
2023-01-19T09:02:05.421Z,99478.44
2023-01-19T09:04:36.384Z,99486.33
2023-01-19T09:09:43.476Z,99486.66
2023-01-19T09:12:14.352Z,99485.19
2023-01-19T09:14:44.740Z,99487.91
2023-01-19T09:17:18.094Z,99485.38
2023-01-19T09:19:48.432Z,99492.56
2023-01-19T09:22:18.878Z,99492.95
2023-01-19T09:24:49.972Z,99496.50
2023-01-19T09:27:20.447Z,99499.09
2023-01-19T09:29:54.025Z,99498.47
2023-01-19T09:32:24.623Z,99504.63
2023-01-19T09:34:56.513Z,99510.31
2023-01-19T09:37:27.303Z,99517.62
2023-01-19T09:39:57.908Z,99518.48
2023-01-19T09:42:34.445Z,99521.29
2023-01-19T09:45:11.435Z,99522.31
2023-01-19T09:47:43.020Z,99523.77
2023-01-19T09:50:21.816Z,99520.33
2023-01-19T09:53:01.557Z,99519.98
2023-01-19T09:55:33.227Z,99516.89
2023-01-19T09:58:04.868Z,99516.32
2023-01-19T10:00:35.347Z,99518.00
2023-01-19T10:03:16.183Z,99519.76
2023-01-19T10:05:50.503Z,99519.54
2023-01-19T10:08:32.107Z,99525.03
2023-01-19T10:11:02.904Z,99523.04
2023-01-19T10:13:41.330Z,99529.27
2023-01-19T10:16:25.814Z,99526.75
2023-01-19T10:19:00.269Z,99526.83
2023-01-19T10:21:35.541Z,99522.63
2023-01-19T10:24:12.113Z,99525.02
2023-01-19T10:26:48.081Z,99516.48
2023-01-19T10:29:27.412Z,99517.94
2023-01-19T10:32:05.826Z,99519.58
2023-01-19T10:34:36.681Z,99519.66
2023-01-19T10:37:18.884Z,99521.36
2023-01-19T10:39:54.126Z,99524.08
2023-01-19T10:42:24.696Z,99524.20
2023-01-19T10:44:55.666Z,99524.77
2023-01-19T10:47:37.042Z,99526.05
2023-01-19T10:50:26.419Z,99524.88
2023-01-19T10:52:58.445Z,99528.48
2023-01-19T10:55:31.796Z,99531.71
2023-01-19T10:58:03.092Z,99525.98
2023-01-19T11:00:38.125Z,99527.02
2023-01-19T11:03:25.444Z,99530.69
2023-01-19T11:06:16.357Z,99525.14
2023-01-19T11:08:48.398Z,99526.27
2023-01-19T11:11:20.866Z,99523.74
2023-01-19T11:14:08.567Z,99526.61
2023-01-19T11:16:40.270Z,99526.44
2023-01-19T11:19:23.094Z,99530.23
2023-01-19T11:21:54.673Z,99533.41
2023-01-19T11:24:25.731Z,99531.39
2023-01-19T11:27:03.032Z,99540.24
2023-01-19T11:29:33.508Z,99535.14
2023-01-19T11:32:20.379Z,99534.50
2023-01-19T11:34:51.388Z,99532.32
2023-01-19T11:37:34.523Z,99532.33
2023-01-19T11:40:14.432Z,99532.33
2023-01-19T11:42:45.237Z,99529.65
2023-01-19T11:45:19.856Z,99531.27
2023-01-19T11:47:52.573Z,99534.02
2023-01-19T11:50:29.422Z,99537.36
2023-01-19T11:53:05.669Z,99541.15
2023-01-19T11:55:42.821Z,99542.42
2023-01-19T11:58:17.853Z,99539.77
2023-01-19T12:00:53.024Z,99540.11
2023-01-19T12:03:30.569Z,99545.33
2023-01-19T12:06:05.665Z,99541.57
2023-01-19T12:08:40.976Z,99541.39
2023-01-19T12:11:17.167Z,99541.73
2023-01-19T12:13:49.368Z,99536.64
2023-01-19T12:16:23.801Z,99538.72
2023-01-19T12:18:57.224Z,99540.30
2023-01-19T12:21:27.612Z,99542.02
2023-01-19T12:24:11.375Z,99543.98
2023-01-19T12:26:49.816Z,99545.21
2023-01-19T12:29:24.943Z,99546.28
2023-01-19T12:32:20.058Z,99548.89
2023-01-19T12:34:51.917Z,99551.09
2023-01-19T12:37:37.333Z,99555.98
2023-01-19T12:40:24.848Z,99557.52
2023-01-19T12:43:00.227Z,99558.77
2023-01-19T12:45:35.559Z,99560.43
2023-01-19T12:48:11.572Z,99564.30
2023-01-19T12:50:47.060Z,99567.39
2023-01-19T12:53:22.592Z,99565.48
2023-01-19T12:56:05.986Z,99566.79
2023-01-19T12:58:37.250Z,99571.54
2023-01-19T13:01:21.058Z,99569.05
2023-01-19T13:04:28.787Z,99574.04
2023-01-19T13:07:17.903Z,99578.52
2023-01-19T13:09:48.351Z,99582.80
2023-01-19T13:12:26.230Z,99587.59
2023-01-19T13:15:30.153Z,99588.20
2023-01-19T13:18:01.812Z,99587.67
2023-01-19T13:20:43.275Z,99590.90
2023-01-19T13:23:23.917Z,99591.98
2023-01-19T13:26:07.462Z,99593.75
2023-01-19T13:28:42.759Z,99595.23
2023-01-19T13:31:14.397Z,99595.31
2023-01-19T13:33:51.712Z,99596.08
2023-01-19T13:36:31.616Z,99593.75
2023-01-19T13:39:04.762Z,99596.08
2023-01-19T13:41:40.620Z,99602.25
2023-01-19T13:44:19.415Z,99609.51
2023-01-19T13:46:51.237Z,99609.31
2023-01-19T13:49:28.471Z,99618.89
2023-01-19T13:52:13.263Z,99619.02
2023-01-19T13:54:53.203Z,99626.36
2023-01-19T13:57:27.422Z,99625.39
2023-01-19T14:00:19.471Z,99633.47
2023-01-19T14:02:59.975Z,99634.60
2023-01-19T14:05:32.582Z,99638.68
2023-01-19T14:08:13.612Z,99646.15
2023-01-19T14:10:45.863Z,99647.34
2023-01-19T14:13:18.905Z,99651.46
2023-01-19T14:15:51.855Z,99656.34
2023-01-19T14:18:31.006Z,99655.23
2023-01-19T14:21:04.188Z,99657.95
2023-01-19T14:23:47.136Z,99660.34
2023-01-19T14:26:46.704Z,99663.34
2023-01-19T14:29:28.307Z,99670.03
2023-01-19T14:32:14.805Z,99671.05
2023-01-19T14:34:47.625Z,99675.22
2023-01-19T14:37:24.303Z,99677.27
2023-01-19T14:39:58.115Z,99679.71
2023-01-19T14:42:32.510Z,99679.66
2023-01-19T14:45:05.821Z,99684.31
2023-01-19T14:47:39.628Z,99683.78
2023-01-19T14:50:19.940Z,99690.91
2023-01-19T14:52:56.287Z,99696.98
2023-01-19T14:55:34.377Z,99694.20
2023-01-19T14:58:03.450Z,99698.13
2023-01-19T15:00:34.253Z,99704.65
2023-01-19T15:03:06.129Z,99704.76
2023-01-19T15:05:37.058Z,99708.43
2023-01-19T15:08:08.554Z,99712.27
2023-01-19T15:10:39.177Z,99717.51
2023-01-19T15:13:16.948Z,99715.38
2023-01-19T15:15:49.750Z,99724.72
2023-01-19T15:18:26.204Z,99724.34
2023-01-19T15:21:02.593Z,99726.73
2023-01-19T15:23:34.101Z,99730.08
2023-01-19T15:26:05.675Z,99729.73
2023-01-19T15:28:36.029Z,99736.14
2023-01-19T15:31:06.652Z,99740.45
2023-01-19T15:33:37.340Z,99744.73
2023-01-19T15:36:11.249Z,99749.42
2023-01-19T15:38:41.632Z,99756.08
2023-01-19T15:41:16.077Z,99755.74
2023-01-19T15:43:47.991Z,99758.17
2023-01-19T15:46:21.613Z,99759.98
2023-01-19T15:48:52.853Z,99761.10
2023-01-19T15:51:26.116Z,99766.98
2023-01-19T15:53:57.299Z,99763.08
2023-01-19T15:56:30.217Z,99765.61
2023-01-19T15:59:02.543Z,99768.63
2023-01-19T16:01:34.723Z,99772.56
2023-01-19T16:04:07.160Z,99779.54
2023-01-19T16:06:37.576Z,99785.09
2023-01-19T16:09:08.195Z,99790.88
2023-01-19T16:11:38.659Z,99793.69
2023-01-19T16:14:09.020Z,99798.14
2023-01-19T16:16:39.780Z,99799.10
2023-01-19T16:19:10.131Z,99799.52
2023-01-19T16:21:40.490Z,99803.81
2023-01-19T16:24:10.977Z,99806.31
2023-01-19T16:26:41.674Z,99807.27
2023-01-19T16:29:12.218Z,99810.48
2023-01-19T16:31:45.331Z,99812.39
2023-01-19T16:34:16.397Z,99812.27
2023-01-19T16:36:46.759Z,99817.98
2023-01-19T16:39:17.977Z,99819.71
2023-01-19T16:41:48.674Z,99824.58
2023-01-19T16:44:19.517Z,99821.44
2023-01-19T16:46:50.641Z,99829.30
2023-01-19T16:49:22.947Z,99828.27
2023-01-19T16:51:55.274Z,99832.25
2023-01-19T16:54:27.210Z,99830.90
2023-01-19T16:56:58.610Z,99836.70
2023-01-19T16:59:29.274Z,99836.95
2023-01-19T17:02:00.681Z,99839.91
2023-01-19T17:04:31.353Z,99837.86
2023-01-19T17:07:01.976Z,99844.13
2023-01-19T17:09:32.353Z,99847.81
2023-01-19T17:12:03.039Z,99852.63
2023-01-19T17:14:43.089Z,99856.16
2023-01-19T17:17:13.957Z,99856.48
2023-01-19T17:19:45.102Z,99852.45
2023-01-19T17:22:15.746Z,99855.42
2023-01-19T17:24:47.457Z,99856.98
2023-01-19T17:27:18.470Z,99860.73
2023-01-19T17:29:50.030Z,99864.64
2023-01-19T17:32:21.344Z,99869.73
2023-01-19T17:34:52.528Z,99870.55
2023-01-19T17:37:23.867Z,99876.83
2023-01-19T17:39:55.460Z,99877.35
2023-01-19T17:42:25.819Z,99883.35
2023-01-19T17:44:56.554Z,99884.66
2023-01-19T17:47:26.882Z,99886.19
2023-01-19T17:49:57.245Z,99884.98
2023-01-19T17:52:27.648Z,99889.16
2023-01-19T17:55:08.222Z,99886.98
2023-01-19T17:57:38.615Z,99890.65
2023-01-19T18:00:11.466Z,99894.36
2023-01-19T18:02:42.362Z,99896.48
2023-01-19T18:05:14.282Z,99900.03
2023-01-19T18:07:45.243Z,99902.95
2023-01-19T18:10:16.109Z,99906.29
2023-01-19T18:12:47.289Z,99909.25
2023-01-19T18:15:17.766Z,99906.35
2023-01-19T18:17:48.275Z,99908.77
2023-01-19T18:20:19.299Z,99916.29
2023-01-19T18:22:49.698Z,99914.77
2023-01-19T18:25:20.140Z,99918.12
2023-01-19T18:27:50.552Z,99918.09
2023-01-19T18:30:24.828Z,99921.67
2023-01-19T18:32:55.892Z,99923.87
2023-01-19T18:35:28.790Z,99931.41
2023-01-19T18:37:59.444Z,99929.36
2023-01-19T18:40:30.019Z,99928.45
2023-01-19T18:43:00.673Z,99930.56
2023-01-19T18:45:31.312Z,99933.57
2023-01-19T18:48:03.167Z,99935.21
2023-01-19T18:50:34.653Z,99937.52
2023-01-19T18:53:05.767Z,99936.78
2023-01-19T18:55:36.608Z,99935.58
2023-01-19T18:58:08.788Z,99936.92
2023-01-19T19:00:39.226Z,99940.42
2023-01-19T19:03:13.448Z,99937.11
2023-01-19T19:05:44.010Z,99938.65
2023-01-19T19:08:14.976Z,99941.81
2023-01-19T19:10:45.934Z,99941.48
2023-01-19T19:13:17.705Z,99951.71
2023-01-19T19:15:48.572Z,99956.11
2023-01-19T19:18:19.315Z,99960.74
2023-01-19T19:20:49.615Z,99956.80
2023-01-19T19:23:20.477Z,99960.03
2023-01-19T19:25:51.405Z,99963.29
2023-01-19T19:28:22.002Z,99964.92
2023-01-19T19:31:02.686Z,99969.23
2023-01-19T19:33:33.630Z,99970.42
2023-01-19T19:36:04.663Z,99972.29
2023-01-19T19:38:36.746Z,99978.29
2023-01-19T19:41:13.304Z,99976.31
2023-01-19T19:43:43.609Z,99977.94
2023-01-19T19:46:15.996Z,99981.09
2023-01-19T19:48:46.356Z,99984.33
2023-01-19T19:51:19.512Z,99986.84
2023-01-19T19:53:51.778Z,99993.13
2023-01-19T19:56:24.163Z,99994.89
2023-01-19T19:58:57.048Z,100003.12
2023-01-19T20:01:32.663Z,100001.87
2023-01-19T20:04:07.962Z,100010.00
2023-01-19T20:06:39.866Z,100010.88
2023-01-19T20:09:14.194Z,100016.70
2023-01-19T20:11:46.685Z,100015.42
2023-01-19T20:14:18.247Z,100018.23
2023-01-19T20:16:49.541Z,100018.48
2023-01-19T20:19:19.996Z,100022.42
2023-01-19T20:21:50.602Z,100024.63
2023-01-19T20:24:22.539Z,100028.66
2023-01-19T20:26:56.267Z,100035.44
2023-01-19T20:29:26.751Z,100040.65
2023-01-19T20:31:58.338Z,100041.98
2023-01-19T20:34:33.302Z,100045.39
2023-01-19T20:37:06.043Z,100048.41
2023-01-19T20:39:37.203Z,100050.48
2023-01-19T20:42:11.222Z,100055.29
2023-01-19T20:44:42.354Z,100051.08
2023-01-19T20:47:12.844Z,100053.14
2023-01-19T20:49:43.467Z,100061.31
2023-01-19T20:52:13.980Z,100055.88
2023-01-19T20:54:44.626Z,100057.35
2023-01-19T20:57:15.317Z,100058.36
2023-01-19T20:59:45.821Z,100067.30
2023-01-19T21:02:17.446Z,100063.52
2023-01-19T21:04:48.076Z,100071.44
2023-01-19T21:07:19.014Z,100073.74
2023-01-19T21:09:49.798Z,100073.05
2023-01-19T21:12:23.437Z,100077.34
2023-01-19T21:14:54.089Z,100082.50
2023-01-19T21:17:24.869Z,100083.17
2023-01-19T21:19:55.850Z,100085.79
2023-01-19T21:22:26.303Z,100088.08
2023-01-19T21:24:56.609Z,100087.21
2023-01-19T21:27:27.247Z,100089.36
2023-01-19T21:29:58.563Z,100090.57
2023-01-19T21:32:29.215Z,100092.95
2023-01-19T21:34:59.949Z,100099.27
2023-01-19T21:37:31.382Z,100102.03
2023-01-19T21:40:01.936Z,100103.88
2023-01-19T21:42:32.484Z,100109.54
2023-01-19T21:45:02.982Z,100108.86
2023-01-19T21:47:35.199Z,100112.25
2023-01-19T21:50:06.104Z,100120.30
2023-01-19T21:52:37.118Z,100118.61
2023-01-19T21:55:08.808Z,100120.89
2023-01-19T21:57:39.454Z,100123.59
2023-01-19T22:00:12.637Z,100124.48
2023-01-19T22:02:46.887Z,100124.25
2023-01-19T22:05:26.661Z,100130.25
2023-01-19T22:07:57.828Z,100133.85
2023-01-19T22:10:28.536Z,100136.30
2023-01-19T22:12:59.238Z,100140.00
2023-01-19T22:15:31.589Z,100140.42
2023-01-19T22:18:02.375Z,100149.64
2023-01-19T22:20:33.252Z,100145.66
2023-01-19T22:23:04.141Z,100154.55
2023-01-19T22:25:36.463Z,100151.92
2023-01-19T22:28:06.879Z,100152.63
2023-01-19T22:30:37.370Z,100158.06
2023-01-19T22:33:08.544Z,100167.30
2023-01-19T22:35:39.495Z,100167.00
2023-01-19T22:38:09.877Z,100170.67
2023-01-19T22:40:40.531Z,100173.14
2023-01-19T22:43:10.896Z,100169.24
2023-01-19T22:45:44.041Z,100171.48
2023-01-19T22:48:17.924Z,100175.17
2023-01-19T22:50:48.855Z,100175.23
2023-01-19T22:53:19.279Z,100178.09
2023-01-19T22:55:49.869Z,100182.45
2023-01-19T22:58:21.541Z,100181.42
2023-01-19T23:00:52.303Z,100185.27
2023-01-19T23:03:23.325Z,100188.14
2023-01-19T23:05:54.651Z,100186.89
2023-01-19T23:08:25.412Z,100189.31
2023-01-19T23:10:55.804Z,100190.84
2023-01-19T23:13:26.333Z,100193.45
2023-01-19T23:15:58.305Z,100195.36
2023-01-19T23:18:29.100Z,100196.42
2023-01-19T23:21:05.094Z,100201.52
2023-01-19T23:23:35.924Z,100199.97
2023-01-19T23:26:08.781Z,100204.04
2023-01-19T23:28:39.735Z,100209.46
2023-01-19T23:31:18.948Z,100210.84
2023-01-19T23:33:49.943Z,100214.50
2023-01-19T23:36:21.882Z,100218.73
2023-01-19T23:38:53.864Z,100221.88
2023-01-19T23:41:25.283Z,100224.80
2023-01-19T23:43:56.046Z,100233.05
2023-01-19T23:46:26.477Z,100230.56
2023-01-19T23:48:57.317Z,100231.05
2023-01-19T23:51:30.062Z,100233.02
2023-01-19T23:54:04.012Z,100233.24
2023-01-19T23:56:36.845Z,100232.45
2023-01-19T23:59:08.769Z,100237.07
